Time;durP1;ratioP1;P1;durP2;ratioP2;P2;SDS_P1;SDS_P2;PMS_P1;PMS_P2;Temp;Humidity;BMP_temperature;BMP_pressure;BME280_temperature;BME280_humidity;BME280_pressure;Samples;Min_cycle;Max_cycle;Signal;HPM_P1;HPM_P2
2023/04/05 00:02:20;;;;;;;3.03;1.57;;;0.10;93.20;;;;;;5105061;28;20538;-79
2023/04/05 00:04:50;;;;;;;2.67;1.70;;;0.00;93.00;;;;;;5096969;28;20546;-77
2023/04/05 00:07:20;;;;;;;4.63;1.55;;;0.10;92.90;;;;;;5092868;28;20637;-78
2023/04/05 00:09:50;;;;;;;1.80;1.48;;;0.10;92.80;;;;;;5104423;28;20197;-77
2023/04/05 00:12:18;;;;;;;1.50;1.40;;;0.00;92.80;;;;;;5097349;28;20204;-78
2023/04/05 00:14:45;;;;;;;3.00;2.13;;;0.00;92.90;;;;;;5094519;28;20947;-78
2023/04/05 00:17:12;;;;;;;3.53;1.90;;;-0.10;93.00;;;;;;5105264;28;20547;-79
2023/04/05 00:19:39;;;;;;;2.85;1.80;;;-0.10;93.90;;;;;;5106005;28;20454;-80
2023/04/05 00:22:09;;;;;;;2.97;1.35;;;-0.20;94.20;;;;;;5106576;28;20682;-78
2023/04/05 00:24:42;;;;;;;2.42;2.25;;;-0.30;94.50;;;;;;5105107;28;20205;-76
2023/04/05 00:27:09;;;;;;;2.13;1.93;;;-0.30;94.30;;;;;;5101099;28;20712;-76
2023/04/05 00:29:37;;;;;;;2.33;2.00;;;-0.40;94.80;;;;;;5102980;28;20472;-78
2023/04/05 00:32:05;;;;;;;7.57;2.42;;;-0.40;95.20;;;;;;5105615;28;20616;-78
2023/04/05 00:34:33;;;;;;;3.25;2.58;;;-0.40;95.80;;;;;;5109061;28;20201;-76
2023/04/05 00:37:00;;;;;;;5.25;3.60;;;-0.50;96.60;;;;;;5109817;28;20199;-77
2023/04/05 00:39:27;;;;;;;3.53;3.17;;;-0.60;97.60;;;;;;5111694;28;20200;-77
2023/04/05 00:41:54;;;;;;;4.70;3.22;;;-0.60;98.30;;;;;;5102218;28;20205;-78
2023/04/05 00:44:21;;;;;;;3.53;2.95;;;-0.60;98.90;;;;;;5104803;28;20299;-77
2023/04/05 00:46:50;;;;;;;7.70;3.03;;;-0.70;99.30;;;;;;5105724;28;20270;-76
2023/04/05 00:49:17;;;;;;;2.40;2.20;;;-0.70;99.70;;;;;;5096481;28;20201;-78
2023/04/05 00:51:45;;;;;;;2.65;2.40;;;-0.80;99.50;;;;;;5104791;28;20602;-78
2023/04/05 00:54:13;;;;;;;4.95;2.45;;;-0.80;99.90;;;;;;5102300;28;20193;-76
2023/04/05 00:56:41;;;;;;;4.45;3.03;;;-0.90;99.90;;;;;;5103750;28;20263;-77
2023/04/05 00:59:08;;;;;;;6.22;2.65;;;-0.90;99.80;;;;;;5095871;28;20192;-77
2023/04/05 01:01:39;;;;;;;4.90;3.22;;;-0.90;99.40;;;;;;5103443;28;20197;-78
2023/04/05 01:04:10;;;;;;;7.60;2.88;;;-0.90;99.20;;;;;;5104845;28;20704;-76
2023/04/05 01:06:52;;;;;;;4.35;2.75;;;-0.90;99.20;;;;;;5102986;28;20211;-79
2023/04/05 01:09:31;;;;;;;9.60;3.10;;;-0.90;99.10;;;;;;5099875;28;20204;-78
2023/04/05 01:12:02;;;;;;;3.58;2.38;;;-0.90;98.70;;;;;;5100180;28;20487;-77
2023/04/05 01:14:29;;;;;;;4.25;2.75;;;-1.00;98.60;;;;;;5101364;28;20258;-78
2023/04/05 01:16:57;;;;;;;3.15;2.85;;;-1.00;98.50;;;;;;5104505;28;20201;-79
2023/04/05 01:19:29;;;;;;;2.15;1.95;;;-1.00;98.70;;;;;;5105992;28;20210;-77
2023/04/05 01:22:30;;;;;;;2.38;1.70;;;-1.10;98.80;;;;;;5102627;28;20198;-76
2023/04/05 01:25:22;;;;;;;3.40;2.40;;;-1.10;99.10;;;;;;5041875;28;20204;-77
2023/04/05 01:28:09;;;;;;;7.72;3.53;;;-1.10;99.20;;;;;;5105244;28;20233;-76
2023/04/05 01:30:41;;;;;;;7.57;2.40;;;-1.20;99.30;;;;;;5096190;28;20265;-77
2023/04/05 01:33:17;;;;;;;2.88;1.85;;;-1.30;99.50;;;;;;5102842;28;20201;-77
2023/04/05 01:35:50;;;;;;;3.97;2.03;;;-1.30;99.60;;;;;;5103368;28;20232;-76
2023/04/05 01:38:20;;;;;;;3.20;2.88;;;-1.30;99.70;;;;;;5100055;28;20197;-76
2023/04/05 01:40:48;;;;;;;3.63;2.70;;;-1.40;99.80;;;;;;5101227;28;20708;-76
2023/04/05 01:43:16;;;;;;;3.40;2.20;;;-1.40;99.90;;;;;;5107508;28;20204;-75
2023/04/05 01:45:45;;;;;;;5.53;2.85;;;-1.50;99.90;;;;;;5105270;28;20202;-75
2023/04/05 01:48:12;;;;;;;2.53;2.33;;;-1.50;99.90;;;;;;5098556;28;20197;-76
2023/04/05 01:50:40;;;;;;;4.65;2.78;;;-1.60;99.90;;;;;;5107209;28;20276;-78
2023/04/05 01:53:07;;;;;;;2.83;1.70;;;-1.70;99.90;;;;;;5098036;28;20200;-76
2023/04/05 01:55:34;;;;;;;7.85;2.67;;;-1.80;99.90;;;;;;5107119;28;20224;-77
2023/04/05 01:58:01;;;;;;;2.60;2.40;;;-1.80;99.90;;;;;;5108556;28;20223;-76
2023/04/05 02:00:28;;;;;;;3.45;2.88;;;-1.80;99.90;;;;;;5102609;28;20254;-77
2023/04/05 02:02:57;;;;;;;4.68;2.90;;;-1.80;99.90;;;;;;5108088;28;20196;-76
2023/04/05 02:05:23;;;;;;;5.60;2.83;;;-1.90;99.90;;;;;;5109218;28;20205;-76
2023/04/05 02:07:50;;;;;;;2.75;2.28;;;-1.90;99.90;;;;;;5107561;28;20238;-77
2023/04/05 02:10:19;;;;;;;5.00;2.40;;;-1.90;99.90;;;;;;5105448;28;20273;-77
2023/04/05 02:12:46;;;;;;;6.72;3.38;;;-1.90;99.90;;;;;;5101043;28;20192;-77
2023/04/05 02:15:13;;;;;;;3.17;2.83;;;-2.00;99.90;;;;;;5097179;28;20220;-77
2023/04/05 02:17:44;;;;;;;4.43;3.75;;;-2.10;99.90;;;;;;5102184;28;20201;-76
2023/04/05 02:20:13;;;;;;;4.13;3.20;;;-2.20;99.90;;;;;;5103687;28;20541;-78
2023/04/05 02:22:43;;;;;;;6.03;2.95;;;-2.20;99.90;;;;;;5102300;28;20500;-77
2023/04/05 02:25:11;;;;;;;4.80;2.90;;;-2.30;99.90;;;;;;5104454;28;20305;-78
2023/04/05 02:27:38;;;;;;;7.22;3.47;;;-2.30;99.90;;;;;;5105968;28;20287;-78
2023/04/05 02:30:07;;;;;;;6.07;3.70;;;-2.40;99.90;;;;;;5111059;28;20219;-77
2023/04/05 02:32:33;;;;;;;6.45;2.72;;;-2.40;99.90;;;;;;5112654;28;20269;-77
2023/04/05 02:35:01;;;;;;;5.47;3.00;;;-2.50;99.90;;;;;;5123373;28;20201;-76
2023/04/05 02:37:30;;;;;;;5.17;2.90;;;-2.50;99.90;;;;;;5111727;28;20211;-78
2023/04/05 02:39:57;;;;;;;5.10;2.70;;;-2.60;99.90;;;;;;5111903;28;20485;-77
2023/04/05 02:42:24;;;;;;;6.45;2.92;;;-2.60;99.90;;;;;;5105592;28;20193;-77
2023/04/05 02:44:51;;;;;;;3.28;2.97;;;-2.60;99.90;;;;;;5105876;28;20201;-77
2023/04/05 02:47:20;;;;;;;5.68;4.07;;;-2.60;99.90;;;;;;5102261;28;20192;-78
2023/04/05 02:49:48;;;;;;;4.88;3.33;;;-2.70;99.90;;;;;;5105634;28;20242;-77
2023/04/05 02:52:15;;;;;;;4.20;3.40;;;-2.70;99.90;;;;;;5103322;28;20200;-76
2023/04/05 02:54:43;;;;;;;8.20;3.70;;;-2.80;99.90;;;;;;5106710;28;20201;-78
2023/04/05 02:57:10;;;;;;;5.28;3.80;;;-2.80;99.90;;;;;;5107790;28;20560;-76
2023/04/05 02:59:38;;;;;;;3.90;2.72;;;-2.80;99.90;;;;;;5107396;28;20193;-77
2023/04/05 03:02:05;;;;;;;6.10;3.50;;;-2.80;99.90;;;;;;5104160;28;20201;-77
2023/04/05 03:04:33;;;;;;;5.57;3.65;;;-2.80;99.90;;;;;;5102824;28;20280;-76
2023/04/05 03:07:01;;;;;;;11.77;4.90;;;-2.80;99.90;;;;;;5106841;28;20642;-77
2023/04/05 03:09:32;;;;;;;6.30;4.55;;;-2.80;99.90;;;;;;5105411;28;20201;-78
2023/04/05 03:12:02;;;;;;;6.63;4.90;;;-2.80;99.90;;;;;;5104332;28;20288;-77
2023/04/05 03:14:30;;;;;;;4.95;3.40;;;-2.80;99.90;;;;;;5100474;28;20205;-79
2023/04/05 03:16:57;;;;;;;5.87;4.33;;;-2.70;99.90;;;;;;5106756;28;20232;-79
2023/04/05 03:19:26;;;;;;;8.00;4.60;;;-2.70;99.90;;;;;;5093587;28;20452;-77
2023/04/05 03:21:53;;;;;;;10.95;5.55;;;-2.60;99.90;;;;;;5103798;28;20227;-78
2023/04/05 03:24:20;;;;;;;9.07;4.53;;;-2.50;99.90;;;;;;5106121;28;20205;-77
2023/04/05 03:26:48;;;;;;;4.13;3.78;;;-2.40;99.90;;;;;;5104881;28;20608;-77
2023/04/05 03:29:16;;;;;;;7.20;4.22;;;-2.40;99.90;;;;;;5100852;28;20250;-79
2023/04/05 03:31:44;;;;;;;8.20;4.70;;;-2.30;99.90;;;;;;5101617;28;20212;-79
2023/04/05 03:34:11;;;;;;;7.53;4.97;;;-2.20;99.90;;;;;;5101518;28;20931;-79
2023/04/05 03:36:41;;;;;;;7.63;5.75;;;-2.20;99.90;;;;;;5106597;28;20232;-78
2023/04/05 03:39:09;;;;;;;5.22;4.38;;;-2.20;99.90;;;;;;5097952;28;20205;-79
2023/04/05 03:41:36;;;;;;;6.25;3.70;;;-2.10;99.90;;;;;;5103526;28;20196;-78
2023/04/05 03:44:03;;;;;;;5.15;3.72;;;-2.10;99.90;;;;;;5107133;28;20204;-79
2023/04/05 03:46:32;;;;;;;4.65;3.13;;;-2.00;99.90;;;;;;5102238;28;20864;-77
2023/04/05 03:49:00;;;;;;;6.35;5.38;;;-1.90;99.90;;;;;;5089818;28;20197;-78
2023/04/05 03:51:27;;;;;;;13.43;4.07;;;-1.90;99.90;;;;;;5103076;28;20203;-78
2023/04/05 03:53:54;;;;;;;8.82;3.70;;;-1.90;99.90;;;;;;5105596;28;20192;-77
2023/04/05 03:56:21;;;;;;;5.80;4.15;;;-1.90;99.90;;;;;;5105569;28;20277;-76
2023/04/05 03:58:48;;;;;;;7.47;4.20;;;-1.80;99.90;;;;;;5105174;28;20789;-78
2023/04/05 04:01:17;;;;;;;7.38;4.30;;;-1.70;99.90;;;;;;5094389;28;20694;-76
2023/04/05 04:03:45;;;;;;;5.25;2.85;;;-1.80;99.90;;;;;;5106655;28;20200;-78
2023/04/05 04:06:12;;;;;;;5.43;3.90;;;-1.90;99.90;;;;;;5097080;28;20209;-78
2023/04/05 04:08:39;;;;;;;6.90;4.20;;;-1.90;99.90;;;;;;5099809;28;20787;-77
2023/04/05 04:11:07;;;;;;;5.30;3.90;;;-1.90;99.90;;;;;;5102738;28;20242;-79
2023/04/05 04:13:34;;;;;;;4.78;3.35;;;-2.00;99.90;;;;;;5097217;28;20232;-77
2023/04/05 04:16:01;;;;;;;3.53;3.22;;;-2.00;99.90;;;;;;5099961;28;20780;-77
2023/04/05 04:18:28;;;;;;;7.78;3.55;;;-2.10;99.90;;;;;;5099737;28;20209;-77
2023/04/05 04:20:57;;;;;;;11.15;4.97;;;-2.20;99.90;;;;;;5098936;28;20329;-76
2023/04/05 04:23:26;;;;;;;5.60;2.78;;;-2.20;99.90;;;;;;5103223;28;20188;-78
2023/04/05 04:25:53;;;;;;;3.50;3.17;;;-2.30;99.90;;;;;;5104635;28;20204;-77
2023/04/05 04:28:23;;;;;;;5.28;4.38;;;-2.30;99.90;;;;;;5104946;28;20239;-76
2023/04/05 04:30:51;;;;;;;6.25;3.65;;;-2.30;99.90;;;;;;5101200;28;20201;-77
2023/04/05 04:33:18;;;;;;;4.20;3.90;;;-2.30;99.90;;;;;;5109371;28;20193;-79
2023/04/05 04:35:46;;;;;;;8.90;4.35;;;-2.30;99.90;;;;;;5107217;28;20207;-79
2023/04/05 04:38:19;;;;;;;6.85;4.35;;;-2.30;99.90;;;;;;5098457;28;20250;-77
2023/04/05 04:40:49;;;;;;;3.63;3.25;;;-2.40;99.90;;;;;;5105370;28;20206;-78
2023/04/05 04:43:17;;;;;;;7.53;4.03;;;-2.40;99.90;;;;;;5103246;28;20220;-78
2023/04/05 04:45:46;;;;;;;4.95;3.70;;;-2.40;99.90;;;;;;5099333;28;20199;-76
2023/04/05 04:48:15;;;;;;;7.88;3.75;;;-2.40;99.90;;;;;;5099493;28;20200;-76
2023/04/05 04:50:43;;;;;;;4.38;2.88;;;-2.50;99.90;;;;;;5106519;28;20212;-78
2023/04/05 04:53:12;;;;;;;5.07;3.42;;;-2.50;99.90;;;;;;5107355;28;20292;-78
2023/04/05 04:55:41;;;;;;;5.20;3.05;;;-2.40;99.90;;;;;;5105101;28;20213;-78
2023/04/05 04:58:10;;;;;;;4.05;2.22;;;-2.30;99.90;;;;;;5096125;28;20294;-78
2023/04/05 05:00:39;;;;;;;5.35;3.30;;;-2.10;99.90;;;;;;5100871;28;20208;-77
2023/04/05 05:03:07;;;;;;;2.75;2.53;;;-2.00;99.90;;;;;;5109484;28;20200;-78
2023/04/05 05:05:34;;;;;;;8.10;2.67;;;-1.90;99.90;;;;;;5108036;28;20201;-78
2023/04/05 05:08:01;;;;;;;5.68;2.80;;;-1.70;99.90;;;;;;5098447;28;20208;-80
2023/04/05 05:10:28;;;;;;;6.80;3.38;;;-1.60;99.90;;;;;;5108959;28;20201;-77
2023/04/05 05:12:56;;;;;;;3.17;2.88;;;-1.60;99.90;;;;;;5104142;28;20692;-76
2023/04/05 05:15:23;;;;;;;4.40;3.03;;;-1.50;99.90;;;;;;5102795;28;20251;-77
2023/04/05 05:17:51;;;;;;;2.72;2.15;;;-1.40;99.90;;;;;;5104971;28;20220;-76
2023/04/05 05:20:19;;;;;;;3.50;2.80;;;-1.40;99.90;;;;;;5113148;27;20200;-78
2023/04/05 05:22:46;;;;;;;5.10;2.28;;;-1.30;99.90;;;;;;5100519;28;20267;-76
2023/04/05 05:25:13;;;;;;;1.92;1.83;;;-1.20;99.90;;;;;;5106139;28;20200;-76
2023/04/05 05:27:40;;;;;;;6.53;2.80;;;-1.20;99.90;;;;;;5103504;28;20236;-77
2023/04/05 05:30:10;;;;;;;4.60;2.72;;;-1.10;99.90;;;;;;5102655;28;20276;-77
2023/04/05 05:32:37;;;;;;;2.78;2.20;;;-1.10;99.90;;;;;;5100217;28;20742;-77
2023/04/05 05:35:06;;;;;;;4.63;3.28;;;-1.00;99.90;;;;;;5109452;28;20253;-78
2023/04/05 05:37:34;;;;;;;7.93;4.80;;;-0.90;99.90;;;;;;5101241;28;20289;-78
2023/04/05 05:40:02;;;;;;;3.05;2.25;;;-0.90;99.90;;;;;;5105827;28;20638;-79
2023/04/05 05:42:31;;;;;;;7.72;3.58;;;-0.90;99.90;;;;;;5109249;28;20698;-77
2023/04/05 05:44:58;;;;;;;3.00;2.13;;;-0.80;99.90;;;;;;5108968;28;20245;-77
2023/04/05 05:47:26;;;;;;;2.75;2.20;;;-0.80;99.90;;;;;;5096327;28;20729;-78
2023/04/05 05:49:53;;;;;;;4.18;2.83;;;-0.80;99.90;;;;;;5101329;28;20250;-77
2023/04/05 05:52:20;;;;;;;3.72;2.90;;;-0.80;99.90;;;;;;5107793;28;20710;-79
2023/04/05 05:54:48;;;;;;;7.57;3.03;;;-0.60;99.90;;;;;;5100807;28;20197;-77
2023/04/05 05:57:14;;;;;;;4.15;2.70;;;-0.50;99.90;;;;;;5106121;28;20227;-77
2023/04/05 05:59:41;;;;;;;3.70;3.33;;;-0.50;99.90;;;;;;5109162;27;20204;-77
2023/04/05 06:02:09;;;;;;;4.80;3.20;;;-0.60;99.90;;;;;;5103963;28;20198;-77
2023/04/05 06:04:37;;;;;;;5.78;3.50;;;-0.60;99.90;;;;;;5105926;28;20228;-77
2023/04/05 06:07:04;;;;;;;10.38;2.85;;;-0.50;99.90;;;;;;5100832;28;20281;-76
2023/04/05 06:09:32;;;;;;;3.65;2.65;;;-0.40;99.90;;;;;;5109353;28;20201;-77
2023/04/05 06:11:59;;;;;;;4.10;3.28;;;-0.30;99.90;;;;;;5102225;28;20280;-77
2023/04/05 06:14:28;;;;;;;1.98;1.60;;;-0.40;99.50;;;;;;5096501;28;20193;-77
2023/04/05 06:16:55;;;;;;;2.42;2.00;;;-0.30;99.00;;;;;;5103269;28;20752;-79
2023/04/05 06:19:22;;;;;;;4.70;2.42;;;-0.20;98.60;;;;;;5106086;28;20205;-77
2023/04/05 06:21:50;;;;;;;3.40;2.40;;;-0.10;98.80;;;;;;5103941;28;20197;-79
2023/04/05 06:24:17;;;;;;;5.47;2.50;;;-0.10;98.80;;;;;;5109248;28;20489;-78
2023/04/05 06:26:44;;;;;;;4.90;2.77;;;0.00;99.30;;;;;;5111899;28;21014;-77
2023/04/05 06:29:12;;;;;;;3.30;2.57;;;0.10;98.90;;;;;;5114962;28;21115;-78
2023/04/05 06:31:40;;;;;;;2.45;1.92;;;0.20;98.00;;;;;;5108102;28;21008;-78
2023/04/05 06:34:07;;;;;;;2.70;2.20;;;0.30;98.50;;;;;;5111388;28;20193;-79
2023/04/05 06:36:34;;;;;;;4.85;3.30;;;0.50;97.90;;;;;;5109258;28;20494;-83
2023/04/05 06:39:03;;;;;;;3.72;1.52;;;0.60;97.20;;;;;;5099564;28;20209;-77
2023/04/05 06:41:30;;;;;;;3.40;1.53;;;0.70;96.50;;;;;;5104780;28;20215;-78
2023/04/05 06:43:57;;;;;;;2.03;1.50;;;0.80;94.10;;;;;;5100578;28;21016;-75
2023/04/05 06:46:25;;;;;;;5.83;1.70;;;0.70;93.30;;;;;;5094217;28;20447;-77
2023/04/05 06:48:52;;;;;;;13.45;2.33;;;0.80;93.30;;;;;;5106176;28;21356;-77
2023/04/05 06:51:19;;;;;;;4.60;1.40;;;0.90;93.00;;;;;;5091324;28;20205;-76
2023/04/05 06:53:46;;;;;;;3.90;2.13;;;1.00;93.00;;;;;;5097714;28;20483;-76
2023/04/05 06:56:15;;;;;;;2.83;1.33;;;1.10;91.70;;;;;;5116818;27;20450;-77
2023/04/05 06:58:42;;;;;;;1.20;1.00;;;1.10;91.30;;;;;;5108226;27;20490;-78
2023/04/05 07:01:10;;;;;;;3.20;1.20;;;1.30;90.70;;;;;;5102510;28;20501;-78
2023/04/05 07:03:37;;;;;;;2.17;1.97;;;1.50;90.00;;;;;;5096956;28;20439;-77
2023/04/05 07:06:05;;;;;;;2.60;2.00;;;1.60;89.30;;;;;;5107321;28;20455;-76
2023/04/05 07:08:33;;;;;;;2.27;1.80;;;1.60;87.40;;;;;;5096978;28;20535;-76
2023/04/05 07:11:00;;;;;;;2.80;1.70;;;1.70;89.90;;;;;;5106568;28;20459;-77
2023/04/05 07:13:28;;;;;;;1.53;1.03;;;1.80;90.10;;;;;;5102432;28;20443;-77
2023/04/05 07:16:00;;;;;;;4.07;1.43;;;1.80;87.10;;;;;;5105292;28;20516;-77
2023/04/05 07:18:28;;;;;;;4.00;1.23;;;2.00;85.80;;;;;;5099265;28;20539;-76
2023/04/05 07:20:58;;;;;;;8.23;1.83;;;1.90;81.50;;;;;;5106193;28;20491;-77
2023/04/05 07:23:26;;;;;;;2.63;1.37;;;2.00;81.00;;;;;;5101684;28;20501;-78
2023/04/05 07:25:53;;;;;;;3.57;2.17;;;2.10;81.20;;;;;;5104730;28;20489;-78
2023/04/05 07:28:20;;;;;;;3.27;2.20;;;2.10;77.10;;;;;;5106992;28;21031;-78
2023/04/05 07:30:49;;;;;;;7.50;2.10;;;2.30;82.50;;;;;;5100389;28;20539;-77
2023/04/05 07:33:16;;;;;;;6.13;2.47;;;2.40;78.10;;;;;;5107034;28;20456;-77
2023/04/05 07:35:44;;;;;;;2.30;1.07;;;2.40;72.10;;;;;;5096277;28;20455;-78
2023/04/05 07:38:11;;;;;;;1.93;1.40;;;2.40;75.20;;;;;;5100033;28;20482;-77
2023/04/05 07:40:38;;;;;;;3.80;1.43;;;2.50;72.50;;;;;;5104748;28;20458;-80
2023/04/05 07:43:05;;;;;;;4.30;1.30;;;2.60;68.70;;;;;;5106498;28;20458;-85
2023/04/05 07:45:32;;;;;;;2.30;1.93;;;2.70;72.90;;;;;;5104348;28;20466;-85
2023/04/05 07:48:00;;;;;;;3.63;1.00;;;2.90;68.30;;;;;;5104122;28;20535;-83
2023/04/05 07:50:27;;;;;;;1.17;1.07;;;2.80;67.20;;;;;;5099499;28;20505;-80
2023/04/05 07:52:54;;;;;;;1.20;1.10;;;2.90;68.30;;;;;;5107128;27;20566;-77
2023/04/05 07:55:21;;;;;;;2.40;1.00;;;3.20;70.20;;;;;;5100472;28;20538;-81
2023/04/05 07:57:48;;;;;;;3.10;1.90;;;3.20;69.30;;;;;;5105395;28;20475;-83
2023/04/05 08:00:16;;;;;;;2.83;2.03;;;3.30;68.70;;;;;;5101416;28;20451;-76
2023/04/05 08:02:43;;;;;;;2.23;1.00;;;3.30;66.10;;;;;;5105369;28;20458;-76
2023/04/05 08:05:11;;;;;;;2.63;1.40;;;3.50;65.30;;;;;;5101131;28;20451;-76
2023/04/05 08:07:38;;;;;;;5.40;1.43;;;3.60;68.30;;;;;;5102662;28;20550;-76
2023/04/05 08:10:06;;;;;;;2.33;1.10;;;3.60;63.70;;;;;;5104971;28;20462;-81
2023/04/05 08:12:34;;;;;;;2.53;0.97;;;3.70;67.40;;;;;;5103204;28;20522;-82
2023/04/05 08:15:01;;;;;;;1.87;1.10;;;3.40;61.60;;;;;;5101470;28;20490;-78
2023/04/05 08:17:28;;;;;;;2.00;0.80;;;3.20;61.80;;;;;;5108617;28;20479;-85
2023/04/05 08:19:56;;;;;;;3.07;1.10;;;3.40;67.80;;;;;;5113453;28;20510;-83
2023/04/05 08:22:28;;;;;;;2.33;1.00;;;3.60;65.80;;;;;;5103282;28;20497;-76
2023/04/05 08:24:55;;;;;;;1.70;0.83;;;3.30;63.10;;;;;;5113534;28;20480;-76
2023/04/05 08:27:22;;;;;;;1.33;1.10;;;3.30;61.60;;;;;;5108610;28;20494;-74
2023/04/05 08:29:49;;;;;;;3.30;1.53;;;3.60;65.10;;;;;;5106347;28;20458;-80
2023/04/05 08:32:16;;;;;;;1.60;0.93;;;3.80;65.70;;;;;;5106446;28;20481;-79
2023/04/05 08:34:43;;;;;;;1.10;1.00;;;4.00;62.30;;;;;;5094311;28;20943;-79
2023/04/05 08:37:10;;;;;;;1.50;0.97;;;3.80;59.40;;;;;;5104272;28;20478;-79
2023/04/05 08:39:38;;;;;;;3.07;1.43;;;3.90;62.60;;;;;;5097203;28;20498;-79
2023/04/05 08:42:12;;;;;;;1.40;0.87;;;4.30;62.20;;;;;;5094567;28;20542;-82
2023/04/05 08:44:41;;;;;;;3.30;1.67;;;4.40;64.00;;;;;;5098702;28;20895;-81
2023/04/05 08:47:13;;;;;;;0.80;0.70;;;4.50;61.40;;;;;;5104122;28;20991;-76
2023/04/05 08:49:43;;;;;;;1.33;0.80;;;4.70;62.00;;;;;;5104473;28;20547;-80
2023/04/05 08:52:10;;;;;;;1.47;1.00;;;4.80;62.00;;;;;;5105551;28;20852;-79
2023/04/05 08:54:38;;;;;;;4.20;2.50;;;4.70;62.00;;;;;;5103699;28;20530;-78
2023/04/05 08:57:07;;;;;;;2.40;1.00;;;4.70;60.00;;;;;;5106266;28;20507;-78
2023/04/05 08:59:36;;;;;;;1.53;1.40;;;4.70;62.30;;;;;;5101680;28;20539;-78
2023/04/05 09:02:08;;;;;;;2.00;1.30;;;4.50;59.20;;;;;;5101912;28;20466;-78
2023/04/05 09:04:43;;;;;;;2.03;0.83;;;4.40;60.00;;;;;;5104913;28;20513;-79
2023/04/05 09:07:12;;;;;;;1.60;0.70;;;4.30;62.60;;;;;;5100066;28;20458;-78
2023/04/05 09:09:44;;;;;;;2.60;0.70;;;4.30;62.00;;;;;;5105329;28;20542;-78
2023/04/05 09:12:11;;;;;;;2.20;0.93;;;4.40;62.90;;;;;;5101830;28;20518;-77
2023/04/05 09:14:39;;;;;;;0.87;0.87;;;4.60;67.60;;;;;;5100222;28;20466;-79
2023/04/05 09:17:06;;;;;;;1.17;0.70;;;4.90;65.70;;;;;;5103385;28;21007;-78
2023/04/05 09:19:33;;;;;;;3.57;1.60;;;5.00;60.90;;;;;;5106201;28;20557;-80
2023/04/05 09:22:02;;;;;;;2.00;1.30;;;4.70;58.70;;;;;;5103503;28;20442;-78
2023/04/05 09:24:34;;;;;;;0.80;0.70;;;4.90;64.50;;;;;;5091654;28;20458;-77
2023/04/05 09:27:07;;;;;;;2.30;0.93;;;5.10;60.20;;;;;;5105371;28;20526;-78
2023/04/05 09:29:34;;;;;;;2.20;1.00;;;5.30;59.70;;;;;;5102560;28;20478;-79
2023/04/05 09:32:02;;;;;;;2.50;1.43;;;5.30;59.90;;;;;;5107923;28;20951;-80
2023/04/05 09:34:31;;;;;;;2.00;1.10;;;5.30;58.80;;;;;;5104160;28;20454;-79
2023/04/05 09:36:59;;;;;;;2.07;0.70;;;5.30;58.40;;;;;;5107397;28;20450;-78
2023/04/05 09:39:31;;;;;;;2.03;1.00;;;5.10;59.10;;;;;;5096050;28;20511;-78
2023/04/05 09:42:12;;;;;;;2.10;1.40;;;5.30;57.50;;;;;;5109383;28;20524;-78
2023/04/05 09:44:52;;;;;;;2.23;0.90;;;5.20;57.20;;;;;;5104742;28;20458;-79
2023/04/05 09:47:20;;;;;;;4.10;1.53;;;5.40;58.70;;;;;;5101020;28;20514;-77
2023/04/05 09:49:48;;;;;;;1.33;0.80;;;5.70;59.40;;;;;;5100876;28;20930;-78
2023/04/05 09:52:19;;;;;;;3.27;1.00;;;5.80;56.70;;;;;;5099911;28;20499;-78
2023/04/05 09:54:46;;;;;;;1.30;1.10;;;5.40;55.80;;;;;;5107877;28;20533;-78
2023/04/05 09:57:16;;;;;;;1.50;0.87;;;5.50;56.90;;;;;;5109094;28;20474;-77
2023/04/05 09:59:43;;;;;;;2.10;0.60;;;5.20;56.60;;;;;;5101407;28;20866;-78
2023/04/05 10:02:11;;;;;;;1.00;0.80;;;4.90;54.90;;;;;;5104474;28;20462;-77
2023/04/05 10:04:42;;;;;;;2.50;1.00;;;4.80;55.30;;;;;;5100992;28;20816;-78
2023/04/05 10:07:11;;;;;;;2.17;1.10;;;5.40;59.90;;;;;;5100733;28;20448;-79
2023/04/05 10:09:39;;;;;;;2.87;0.90;;;5.60;57.10;;;;;;5099063;28;20536;-78
2023/04/05 10:12:07;;;;;;;2.03;0.90;;;5.10;56.60;;;;;;5106131;28;20496;-77
2023/04/05 10:14:36;;;;;;;3.50;1.00;;;5.30;59.20;;;;;;5101124;28;20476;-78
2023/04/05 10:17:09;;;;;;;2.70;0.90;;;5.40;55.60;;;;;;5101421;28;20439;-77
2023/04/05 10:19:50;;;;;;;1.10;0.90;;;5.20;59.70;;;;;;5113168;28;20482;-77
2023/04/05 10:22:23;;;;;;;2.30;1.37;;;5.00;58.40;;;;;;5096906;28;20435;-77
2023/04/05 10:24:56;;;;;;;2.10;1.30;;;5.30;57.40;;;;;;5106976;28;20856;-77
2023/04/05 10:27:30;;;;;;;2.43;0.93;;;5.20;55.00;;;;;;5096659;28;20475;-77
2023/04/05 10:30:07;;;;;;;1.63;1.00;;;5.10;54.80;;;;;;5105396;28;20499;-78
2023/04/05 10:32:56;;;;;;;1.00;0.70;;;5.20;51.10;;;;;;5108487;28;20454;-79
2023/04/05 10:35:29;;;;;;;1.63;0.90;;;5.00;49.20;;;;;;5095080;28;20500;-78
2023/04/05 10:38:17;;;;;;;1.20;0.80;;;4.90;52.40;;;;;;5105415;28;20478;-79
2023/04/05 10:40:48;;;;;;;2.50;1.00;;;5.20;52.10;;;;;;5095116;28;20458;-77
2023/04/05 10:43:19;;;;;;;2.73;1.10;;;5.00;50.30;;;;;;5099336;28;21179;-79
2023/04/05 10:45:50;;;;;;;1.70;0.90;;;5.50;56.90;;;;;;5103091;28;20919;-78
2023/04/05 10:48:25;;;;;;;5.20;0.93;;;5.90;52.40;;;;;;5104650;28;20831;-77
2023/04/05 10:50:52;;;;;;;4.33;1.27;;;5.40;50.40;;;;;;5103341;28;20545;-77
2023/04/05 10:53:22;;;;;;;2.43;0.73;;;5.40;53.20;;;;;;5097108;28;20458;-77
2023/04/05 10:55:50;;;;;;;0.60;0.60;;;5.50;51.00;;;;;;5104883;28;20521;-78
2023/04/05 10:58:18;;;;;;;2.60;0.97;;;6.00;57.20;;;;;;5103026;28;20832;-77
2023/04/05 11:00:47;;;;;;;0.80;0.63;;;5.90;49.00;;;;;;5102113;28;20949;-77
2023/04/05 11:03:41;;;;;;;1.50;0.70;;;6.00;52.60;;;;;;5104347;28;21210;-77
2023/04/05 11:06:21;;;;;;;1.00;0.60;;;5.90;49.50;;;;;;5101740;28;21127;-78
2023/04/05 11:08:50;;;;;;;2.80;1.00;;;6.00;52.90;;;;;;5100672;28;20546;-77
2023/04/05 11:11:19;;;;;;;2.43;0.70;;;6.20;54.50;;;;;;5105710;28;20470;-77
2023/04/05 11:13:50;;;;;;;4.00;1.20;;;6.30;52.90;;;;;;5094431;28;20452;-80
2023/04/05 11:16:19;;;;;;;0.70;0.60;;;6.10;54.30;;;;;;5097509;28;21003;-77
2023/04/05 11:18:47;;;;;;;1.17;0.80;;;6.30;52.10;;;;;;5099136;28;20539;-76
2023/04/05 11:21:22;;;;;;;2.47;1.03;;;6.20;51.20;;;;;;5108312;28;20474;-78
2023/04/05 11:24:05;;;;;;;1.03;0.70;;;6.00;48.70;;;;;;5095925;28;20439;-77
2023/04/05 11:26:53;;;;;;;1.23;0.90;;;5.80;49.90;;;;;;5100074;28;20451;-77
2023/04/05 11:29:44;;;;;;;0.90;0.60;;;6.00;48.30;;;;;;5106019;28;20543;-76
2023/04/05 11:32:13;;;;;;;3.80;0.77;;;5.60;46.70;;;;;;5103442;28;20451;-79
2023/04/05 11:34:42;;;;;;;0.73;0.60;;;5.60;47.00;;;;;;5107270;28;20439;-78
2023/04/05 11:37:10;;;;;;;1.27;0.70;;;5.80;47.80;;;;;;5104647;28;20534;-77
2023/04/05 11:39:38;;;;;;;2.80;0.60;;;5.80;47.60;;;;;;5104232;28;20996;-77
2023/04/05 11:42:07;;;;;;;2.80;0.97;;;6.00;45.60;;;;;;5104951;28;20554;-79
2023/04/05 11:44:43;;;;;;;2.10;0.67;;;6.40;52.50;;;;;;5106599;28;20461;-78
2023/04/05 11:47:10;;;;;;;1.53;0.90;;;6.60;50.00;;;;;;5103873;28;20489;-77
2023/04/05 11:49:40;;;;;;;1.80;0.90;;;6.70;53.60;;;;;;5103230;28;20460;-78
2023/04/05 11:52:12;;;;;;;2.33;0.80;;;6.50;47.40;;;;;;5099839;28;20451;-77
2023/04/05 11:54:44;;;;;;;1.10;0.80;;;6.60;52.70;;;;;;5105361;28;20490;-79
2023/04/05 11:57:13;;;;;;;1.07;0.83;;;6.50;51.90;;;;;;5106152;28;20454;-78
2023/04/05 11:59:40;;;;;;;1.53;0.70;;;6.50;51.30;;;;;;5106176;28;20476;-77
2023/04/05 12:02:08;;;;;;;1.77;0.77;;;6.40;49.20;;;;;;5104808;28;20470;-76
2023/04/05 12:04:35;;;;;;;0.60;0.53;;;6.40;50.40;;;;;;5105534;28;20454;-77
2023/04/05 12:07:15;;;;;;;0.70;0.60;;;6.00;45.40;;;;;;5105706;28;20532;-78
2023/04/05 12:09:59;;;;;;;1.20;0.90;;;6.40;47.40;;;;;;5108819;28;20461;-77
2023/04/05 12:12:26;;;;;;;0.80;0.70;;;6.50;49.00;;;;;;5111174;28;20488;-77
2023/04/05 12:14:59;;;;;;;1.00;0.70;;;6.20;45.60;;;;;;5106745;28;20462;-79
2023/04/05 12:17:38;;;;;;;1.23;0.70;;;6.20;51.70;;;;;;5097135;28;21314;-78
2023/04/05 12:20:07;;;;;;;1.47;1.00;;;6.10;45.20;;;;;;5089341;28;21011;-78
2023/04/05 12:22:38;;;;;;;2.17;0.90;;;6.40;44.30;;;;;;5100602;28;20978;-78
2023/04/05 12:25:06;;;;;;;1.00;0.77;;;6.40;48.60;;;;;;5100109;28;20810;-79
2023/04/05 12:27:33;;;;;;;1.23;0.70;;;6.70;47.50;;;;;;5104195;28;20523;-79
2023/04/05 12:30:14;;;;;;;3.53;0.70;;;6.60;47.40;;;;;;5106187;28;20519;-78
2023/04/05 12:32:51;;;;;;;1.47;1.20;;;6.50;45.20;;;;;;5098305;28;20992;-79
2023/04/05 12:35:20;;;;;;;0.97;0.87;;;6.50;47.50;;;;;;5100530;28;20438;-78
2023/04/05 12:37:50;;;;;;;4.47;0.97;;;6.80;50.50;;;;;;5105077;28;21024;-81
2023/04/05 12:40:22;;;;;;;0.80;0.60;;;6.60;44.30;;;;;;5095588;28;21243;-78
2023/04/05 12:42:49;;;;;;;3.10;0.90;;;6.60;45.60;;;;;;5105341;28;20450;-81
2023/04/05 12:45:16;;;;;;;1.30;1.20;;;6.70;43.90;;;;;;5095364;28;20442;-79
2023/04/05 12:47:51;;;;;;;1.80;0.70;;;6.90;48.10;;;;;;5098595;28;20454;-78
2023/04/05 12:50:20;;;;;;;1.13;0.90;;;6.50;44.50;;;;;;5103919;28;20489;-79
2023/04/05 12:52:59;;;;;;;0.90;0.80;;;6.90;50.30;;;;;;5107251;28;20454;-79
2023/04/05 12:55:27;;;;;;;1.47;0.90;;;7.30;48.20;;;;;;5107446;28;20477;-82
2023/04/05 12:57:58;;;;;;;1.83;0.80;;;7.00;42.20;;;;;;5095136;28;20509;-81
2023/04/05 13:00:28;;;;;;;1.23;0.70;;;6.70;44.00;;;;;;5110036;28;21224;-77
2023/04/05 13:02:56;;;;;;;4.17;1.30;;;6.80;44.40;;;;;;5110106;28;20470;-79
2023/04/05 13:05:24;;;;;;;2.00;1.23;;;6.50;46.60;;;;;;5100663;28;20451;-79